Time;durP1;ratioP1;P1;durP2;ratioP2;P2;SDS_P1;SDS_P2;PMS_P1;PMS_P2;Temp;Humidity;BMP_temperature;BMP_pressure;BME280_temperature;BME280_humidity;BME280_pressure;Samples;Min_cycle;Max_cycle;Signal;HPM_P1;HPM_P2
2021/12/10 00:00:59;;;;;;;38.33;25.83;;;4.30;89.00;;;;;;5054003;28;20411;-45
2021/12/10 00:03:33;;;;;;;43.47;27.45;;;4.20;89.00;;;;;;5071297;28;20027;-44
2021/12/10 00:06:13;;;;;;;45.85;27.55;;;4.20;89.10;;;;;;5071366;28;20525;-44
2021/12/10 00:08:47;;;;;;;42.35;25.40;;;4.30;89.10;;;;;;5072169;28;20036;-43
2021/12/10 00:11:30;;;;;;;43.17;27.13;;;4.30;89.00;;;;;;5071380;28;20513;-44
2021/12/10 00:13:58;;;;;;;45.95;26.90;;;4.30;89.00;;;;;;5071050;28;20368;-44
2021/12/10 00:16:25;;;;;;;38.08;26.65;;;4.30;89.00;;;;;;5055669;28;20028;-44
2021/12/10 00:19:04;;;;;;;37.47;26.30;;;4.20;89.00;;;;;;5070195;28;20047;-47
2021/12/10 00:21:35;;;;;;;41.58;26.27;;;4.30;88.90;;;;;;5071558;28;20031;-44
2021/12/10 00:24:02;;;;;;;38.92;25.15;;;4.30;88.90;;;;;;5060171;28;20044;-47
2021/12/10 00:26:29;;;;;;;40.28;24.33;;;4.30;88.80;;;;;;5071170;28;20024;-47
2021/12/10 00:29:02;;;;;;;39.60;25.48;;;4.20;88.90;;;;;;5070698;28;20430;-45
2021/12/10 00:34:28;;;;;;;38.42;24.92;;;4.30;88.80;;;;;;5070448;28;20032;-45
2021/12/10 00:37:00;;;;;;;35.63;24.70;;;4.30;88.70;;;;;;5072505;28;20438;-45
2021/12/10 00:39:32;;;;;;;40.13;25.85;;;4.30;88.70;;;;;;5076583;28;20051;-45
2021/12/10 00:42:05;;;;;;;38.13;25.17;;;4.30;88.70;;;;;;5070317;28;20031;-46
2021/12/10 00:44:33;;;;;;;40.85;25.50;;;4.30;88.80;;;;;;5070497;28;20040;-45
2021/12/10 00:46:59;;;;;;;35.65;23.50;;;4.30;88.80;;;;;;5071086;28;20479;-46
2021/12/10 00:49:26;;;;;;;39.47;24.70;;;4.30;88.70;;;;;;5070690;28;20670;-44
2021/12/10 00:51:53;;;;;;;37.05;24.17;;;4.30;88.70;;;;;;5070907;28;20036;-44
2021/12/10 00:54:19;;;;;;;39.83;26.52;;;4.30;88.80;;;;;;5070615;28;20047;-45
2021/12/10 00:56:49;;;;;;;32.97;24.50;;;4.30;88.70;;;;;;5070985;28;20024;-46
2021/12/10 00:59:17;;;;;;;36.13;24.90;;;4.30;88.80;;;;;;5070417;28;20376;-44
2021/12/10 01:01:44;;;;;;;32.22;23.25;;;4.40;88.80;;;;;;5070770;28;20033;-43
2021/12/10 01:04:30;;;;;;;38.20;23.48;;;4.20;88.70;;;;;;5070865;28;20036;-43
2021/12/10 01:07:00;;;;;;;36.92;25.50;;;4.30;88.80;;;;;;5070605;28;20028;-44
2021/12/10 01:09:29;;;;;;;;;;;4.30;88.80;;;;;;5054325;28;20028;-47
2021/12/10 01:12:04;;;;;;;37.45;24.23;;;4.20;88.90;;;;;;5054399;28;19912;-43
2021/12/10 01:25:54;;;;;;;34.80;23.40;;;4.30;88.90;;;;;;5068250;28;20542;-45
2021/12/10 01:28:22;;;;;;;36.90;22.88;;;4.20;88.90;;;;;;5067931;28;20032;-44
2021/12/10 01:30:49;;;;;;;36.75;23.70;;;4.20;89.00;;;;;;5051890;28;20127;-45
2021/12/10 01:33:18;;;;;;;35.92;22.80;;;4.30;89.00;;;;;;5065851;28;20053;-47
2021/12/10 01:35:51;;;;;;;36.30;24.35;;;4.20;89.00;;;;;;5053694;28;20029;-48
2021/12/10 01:38:19;;;;;;;35.72;22.85;;;4.30;89.00;;;;;;5073888;28;20017;-49
2021/12/10 01:40:51;;;;;;;34.88;23.42;;;4.30;88.90;;;;;;5069855;28;20038;-45
2021/12/10 01:43:33;;;;;;;32.63;24.27;;;4.30;88.90;;;;;;5068939;28;20074;-45
2021/12/10 01:46:10;;;;;;;36.67;23.27;;;4.30;88.80;;;;;;5069441;28;20115;-45
2021/12/10 01:48:44;;;;;;;37.08;22.20;;;4.30;88.90;;;;;;5069709;28;20093;-47
2021/12/10 01:51:15;;;;;;;36.15;23.85;;;4.30;89.00;;;;;;5069146;28;20044;-46
2021/12/10 01:53:43;;;;;;;37.03;24.65;;;4.30;89.00;;;;;;5067668;28;20390;-44
2021/12/10 01:56:15;;;;;;;38.72;22.83;;;4.30;88.90;;;;;;5069584;28;20043;-45
2021/12/10 01:58:43;;;;;;;37.03;22.15;;;4.30;88.90;;;;;;5052014;28;20028;-48
2021/12/10 02:01:14;;;;;;;33.58;23.50;;;4.20;88.90;;;;;;5069544;28;20036;-46
2021/12/10 02:03:42;;;;;;;37.42;24.13;;;4.30;88.90;;;;;;5069210;28;20028;-46
2021/12/10 02:06:09;;;;;;;37.78;24.60;;;4.30;88.90;;;;;;5068634;28;20033;-44
2021/12/10 02:08:37;;;;;;;40.05;23.20;;;4.20;89.00;;;;;;5066856;28;20089;-47
2021/12/10 02:11:05;;;;;;;36.15;22.60;;;4.20;89.00;;;;;;5069904;28;20036;-48
2021/12/10 02:13:33;;;;;;;35.55;21.80;;;4.20;89.00;;;;;;5069405;28;20043;-48
2021/12/10 02:16:00;;;;;;;34.80;23.90;;;4.20;89.00;;;;;;5069249;28;20154;-46
2021/12/10 02:18:27;;;;;;;31.80;22.45;;;4.30;88.90;;;;;;5064326;28;20067;-52
2021/12/10 02:21:07;;;;;;;34.35;22.25;;;4.20;88.90;;;;;;5069403;28;20473;-44
2021/12/10 02:23:37;;;;;;;33.47;22.58;;;4.20;88.90;;;;;;5069503;28;20040;-49
2021/12/10 02:26:07;;;;;;;33.42;23.80;;;4.20;88.90;;;;;;5068865;28;20067;-44
2021/12/10 02:28:34;;;;;;;;;;;4.20;89.00;;;;;;5069621;28;20021;-45
2021/12/10 02:31:02;;;;;;;35.03;21.92;;;4.20;88.80;;;;;;5069140;28;19916;-44
2021/12/10 02:33:29;;;;;;;32.22;22.55;;;4.20;88.90;;;;;;5059531;28;20496;-45
2021/12/10 02:35:57;;;;;;;32.25;21.90;;;4.20;88.90;;;;;;5057746;28;20532;-46
2021/12/10 02:38:24;;;;;;;38.08;23.67;;;4.30;88.80;;;;;;5069462;28;20028;-45
2021/12/10 02:40:53;;;;;;;32.90;22.23;;;4.20;88.80;;;;;;5051398;28;20416;-48
2021/12/10 02:43:23;;;;;;;38.00;21.05;;;4.20;88.90;;;;;;5062850;28;20025;-44
2021/12/10 02:45:54;;;;;;;38.90;23.50;;;4.20;88.90;;;;;;5051279;28;20507;-43
2021/12/10 02:48:21;;;;;;;33.92;20.10;;;4.30;88.80;;;;;;5068660;28;20448;-49
2021/12/10 02:50:48;;;;;;;38.38;24.42;;;4.30;88.80;;;;;;5057485;28;20031;-46
2021/12/10 02:53:22;;;;;;;32.72;23.90;;;4.20;88.80;;;;;;5068673;28;20341;-45
2021/12/10 02:55:49;;;;;;;33.03;21.92;;;4.20;88.90;;;;;;5063274;28;20116;-44
2021/12/10 02:58:16;;;;;;;35.60;23.55;;;4.20;88.80;;;;;;5063243;28;20039;-48
2021/12/10 03:00:54;;;;;;;36.30;23.48;;;4.20;88.70;;;;;;5069074;28;20096;-46
2021/12/10 03:03:23;;;;;;;33.88;23.48;;;4.20;88.80;;;;;;5069127;28;20345;-47
2021/12/10 03:05:51;;;;;;;35.20;22.08;;;4.20;88.80;;;;;;5069109;28;20056;-46
2021/12/10 03:08:19;;;;;;;35.15;22.63;;;4.20;88.80;;;;;;5068834;28;20059;-45
2021/12/10 03:10:46;;;;;;;34.38;23.40;;;4.20;88.80;;;;;;5068740;28;20025;-43
2021/12/10 03:13:12;;;;;;;30.48;21.60;;;4.20;88.70;;;;;;5068564;28;20028;-45
2021/12/10 03:15:40;;;;;;;39.03;23.67;;;4.20;88.70;;;;;;5068241;28;20093;-45
2021/12/10 03:18:10;;;;;;;34.42;23.08;;;4.20;88.70;;;;;;5067955;28;20442;-43
2021/12/10 03:20:38;;;;;;;37.72;22.20;;;4.20;88.70;;;;;;5068366;28;20044;-46
2021/12/10 03:23:05;;;;;;;35.88;21.80;;;4.10;88.70;;;;;;5054021;28;20025;-46
2021/12/10 03:25:33;;;;;;;36.65;22.60;;;4.10;88.90;;;;;;5061446;28;20032;-45
2021/12/10 03:28:03;;;;;;;42.45;27.95;;;4.10;89.00;;;;;;5068266;28;20090;-43
2021/12/10 03:30:33;;;;;;;31.75;21.80;;;4.20;89.00;;;;;;5067556;28;20056;-45
2021/12/10 03:33:00;;;;;;;37.33;24.05;;;4.20;89.00;;;;;;5050798;28;20426;-48
2021/12/10 03:35:35;;;;;;;37.65;24.83;;;4.20;89.10;;;;;;5068135;28;20036;-44
2021/12/10 03:38:04;;;;;;;38.15;24.55;;;4.20;89.00;;;;;;5064924;28;20608;-44
2021/12/10 03:40:32;;;;;;;39.10;24.48;;;4.20;89.10;;;;;;5085111;28;20112;-44
2021/12/10 03:42:59;;;;;;;37.35;23.92;;;4.10;89.10;;;;;;5071915;28;20024;-43
2021/12/10 03:45:31;;;;;;;38.70;25.13;;;4.10;89.20;;;;;;5072158;28;20025;-48
2021/12/10 03:48:00;;;;;;;35.55;22.77;;;4.20;89.10;;;;;;5071996;28;20036;-46
2021/12/10 03:50:31;;;;;;;35.30;22.90;;;4.20;89.00;;;;;;5072223;28;20051;-46
2021/12/10 03:53:02;;;;;;;36.38;21.92;;;4.20;89.00;;;;;;5059500;28;20037;-43
2021/12/10 03:55:29;;;;;;;36.20;23.15;;;4.20;89.00;;;;;;5071728;28;20029;-48
2021/12/10 03:57:57;;;;;;;35.80;23.02;;;4.20;88.90;;;;;;5070744;28;20048;-47
2021/12/10 04:00:27;;;;;;;31.75;20.63;;;4.10;88.70;;;;;;5071134;28;20024;-47
2021/12/10 04:02:58;;;;;;;34.33;19.65;;;4.10;88.80;;;;;;5068783;28;20029;-43
2021/12/10 04:05:26;;;;;;;34.92;21.55;;;4.10;88.80;;;;;;5071729;28;20477;-43
2021/12/10 04:07:53;;;;;;;32.50;18.35;;;4.10;88.80;;;;;;5071536;28;20457;-45
2021/12/10 04:10:22;;;;;;;28.60;20.48;;;4.10;88.50;;;;;;5071685;28;20058;-49
2021/12/10 04:12:49;;;;;;;25.10;18.08;;;4.10;88.50;;;;;;5071936;28;20037;-46
2021/12/10 04:15:20;;;;;;;31.65;19.38;;;4.10;88.40;;;;;;5071514;28;20120;-45
2021/12/10 04:17:49;;;;;;;26.10;18.17;;;4.10;88.40;;;;;;5071343;28;20043;-46
2021/12/10 04:20:18;;;;;;;28.67;18.58;;;4.10;88.40;;;;;;5071488;28;20021;-43
2021/12/10 04:22:46;;;;;;;27.67;20.17;;;4.20;88.40;;;;;;5067978;28;20036;-44
2021/12/10 04:25:16;;;;;;;27.17;17.75;;;4.20;88.40;;;;;;5070843;28;20029;-45
2021/12/10 04:27:49;;;;;;;24.73;18.02;;;4.10;88.30;;;;;;5070863;28;20049;-45
2021/12/10 04:30:16;;;;;;;28.73;18.92;;;4.10;88.30;;;;;;5070693;28;20511;-43
2021/12/10 04:32:44;;;;;;;28.05;19.15;;;4.10;88.50;;;;;;5071158;28;20035;-48
2021/12/10 04:35:12;;;;;;;30.88;18.92;;;4.10;88.40;;;;;;5070424;28;20025;-46
2021/12/10 04:37:40;;;;;;;29.50;18.00;;;4.10;88.30;;;;;;5078724;28;20453;-46
2021/12/10 04:40:12;;;;;;;27.30;18.15;;;4.10;88.30;;;;;;5091728;28;20450;-46
2021/12/10 04:42:41;;;;;;;26.77;19.52;;;4.10;88.20;;;;;;5087645;28;20649;-43
2021/12/10 04:45:09;;;;;;;27.02;18.05;;;4.00;88.20;;;;;;5070732;28;20036;-44
2021/12/10 04:47:36;;;;;;;27.30;17.15;;;4.10;88.40;;;;;;5069836;28;20036;-47
2021/12/10 04:50:05;;;;;;;25.90;19.13;;;4.10;88.30;;;;;;5070670;28;20567;-49
2021/12/10 04:52:34;;;;;;;33.22;18.17;;;4.00;88.30;;;;;;5070618;28;20052;-46
2021/12/10 04:55:05;;;;;;;28.30;17.37;;;4.00;88.40;;;;;;5070241;28;20469;-45
2021/12/10 04:57:32;;;;;;;23.80;17.30;;;4.00;88.30;;;;;;5069967;28;20453;-46
2021/12/10 04:59:59;;;;;;;26.63;16.83;;;4.00;88.30;;;;;;5070271;28;20457;-44
2021/12/10 05:02:26;;;;;;;28.55;17.63;;;4.00;88.40;;;;;;5069487;28;20043;-44
2021/12/10 05:04:57;;;;;;;23.70;17.20;;;4.00;88.50;;;;;;5070949;28;20024;-47
2021/12/10 05:07:29;;;;;;;25.35;16.80;;;3.90;88.40;;;;;;5070157;28;20359;-43
2021/12/10 05:09:57;;;;;;;23.05;16.23;;;3.90;88.60;;;;;;5069534;28;20054;-49
2021/12/10 05:12:24;;;;;;;26.75;17.05;;;3.90;88.50;;;;;;5054136;28;20384;-46
2021/12/10 05:14:57;;;;;;;25.70;17.88;;;3.90;88.50;;;;;;5070055;28;20457;-43
2021/12/10 05:17:28;;;;;;;24.40;16.08;;;3.90;88.50;;;;;;5070278;28;20029;-43
2021/12/10 05:19:56;;;;;;;29.90;17.92;;;4.00;88.50;;;;;;5069824;28;20519;-45
2021/12/10 05:22:21;;;;;;;25.15;16.13;;;3.90;88.50;;;;;;5069852;28;20457;-43
2021/12/10 05:24:48;;;;;;;22.85;17.17;;;3.90;88.50;;;;;;5069464;28;20049;-43
2021/12/10 05:27:15;;;;;;;23.25;15.77;;;3.90;88.50;;;;;;5069967;28;20035;-45
2021/12/10 05:29:41;;;;;;;22.83;15.75;;;4.00;88.50;;;;;;5069481;28;20083;-44
2021/12/10 05:32:08;;;;;;;23.88;15.60;;;4.00;88.50;;;;;;5069129;28;20075;-46
2021/12/10 05:34:39;;;;;;;24.70;15.88;;;4.00;88.40;;;;;;5066175;28;20033;-45
2021/12/10 05:37:07;;;;;;;24.15;16.13;;;4.00;88.30;;;;;;5070467;28;20058;-46
2021/12/10 05:39:33;;;;;;;21.15;15.13;;;4.00;88.30;;;;;;5069351;28;20021;-48
2021/12/10 05:42:03;;;;;;;21.33;15.65;;;4.00;88.30;;;;;;5051766;28;20028;-44
2021/12/10 05:44:31;;;;;;;20.75;13.88;;;4.00;88.30;;;;;;5069284;28;20674;-46
2021/12/10 05:46:59;;;;;;;19.48;14.63;;;4.00;88.40;;;;;;5067068;28;20033;-45
2021/12/10 05:49:30;;;;;;;21.55;15.48;;;4.00;88.40;;;;;;5069090;28;20024;-45
2021/12/10 05:51:58;;;;;;;19.73;14.98;;;4.00;88.40;;;;;;5066833;28;20083;-45
2021/12/10 05:54:23;;;;;;;21.70;14.75;;;4.00;88.40;;;;;;5068401;28;20024;-45
2021/12/10 05:56:50;;;;;;;22.48;14.55;;;4.00;88.40;;;;;;5069124;28;20040;-43
2021/12/10 05:59:17;;;;;;;18.77;14.05;;;4.00;88.20;;;;;;5066198;28;20035;-45
2021/12/10 06:01:44;;;;;;;20.95;15.25;;;4.00;88.10;;;;;;5052187;28;20058;-44
2021/12/10 06:04:11;;;;;;;26.65;17.58;;;4.00;88.10;;;;;;5069041;28;20036;-44
2021/12/10 06:06:39;;;;;;;22.50;17.08;;;4.00;88.20;;;;;;5051671;28;20123;-45
2021/12/10 06:09:09;;;;;;;22.65;15.18;;;4.00;88.20;;;;;;5069005;28;20024;-44
2021/12/10 06:11:36;;;;;;;;;;;4.00;88.10;;;;;;5069939;28;20032;-47
2021/12/10 06:14:07;;;;;;;18.95;13.85;;;4.00;88.10;;;;;;5056948;28;19916;-47
2021/12/10 06:16:35;;;;;;;23.27;14.38;;;4.00;88.00;;;;;;5069066;28;20343;-44
2021/12/10 06:19:04;;;;;;;20.08;13.63;;;4.00;88.00;;;;;;5069483;28;20032;-43
2021/12/10 06:21:33;;;;;;;;;;;4.00;88.00;;;;;;5069930;28;20426;-46
2021/12/10 06:24:01;;;;;;;19.13;13.38;;;4.00;87.90;;;;;;5068981;28;19920;-48
2021/12/10 06:26:31;;;;;;;16.38;11.85;;;4.00;87.90;;;;;;5069202;28;20055;-43
2021/12/10 06:28:57;;;;;;;;;;;3.90;87.80;;;;;;5052557;28;20039;-49
2021/12/10 06:31:24;;;;;;;18.05;12.20;;;4.00;87.90;;;;;;5068526;28;19927;-46
2021/12/10 06:33:55;;;;;;;19.40;12.98;;;3.90;87.90;;;;;;5068575;28;20036;-49
2021/12/10 06:36:22;;;;;;;16.15;12.25;;;3.90;87.80;;;;;;5068879;28;20426;-47
2021/12/10 06:38:52;;;;;;;15.60;11.40;;;3.90;87.70;;;;;;5068210;28;20041;-44
2021/12/10 06:41:20;;;;;;;18.40;11.40;;;4.00;87.80;;;;;;5068165;28;20330;-43
2021/12/10 06:43:47;;;;;;;16.77;12.45;;;3.90;87.90;;;;;;5067648;28;20408;-48
2021/12/10 06:46:14;;;;;;;17.73;12.35;;;3.90;87.90;;;;;;5060383;28;20133;-47
2021/12/10 06:48:44;;;;;;;19.35;13.40;;;3.90;87.80;;;;;;5068347;28;20027;-46
2021/12/10 06:51:18;;;;;;;18.17;12.02;;;3.90;87.70;;;;;;5068858;28;20033;-45
2021/12/10 06:53:46;;;;;;;17.63;12.85;;;3.90;87.80;;;;;;5067488;28;20033;-45
2021/12/10 06:56:14;;;;;;;15.90;10.77;;;3.90;87.80;;;;;;5068502;28;20037;-49
2021/12/10 06:58:41;;;;;;;17.88;12.18;;;3.90;87.70;;;;;;5051126;28;20035;-44
2021/12/10 07:01:13;;;;;;;18.52;11.20;;;3.90;87.80;;;;;;5068417;28;20040;-46
2021/12/10 07:03:42;;;;;;;18.35;12.25;;;3.90;87.90;;;;;;5068224;28;20095;-45
2021/12/10 07:06:09;;;;;;;17.17;12.13;;;3.90;87.90;;;;;;5068701;28;20078;-44
2021/12/10 07:08:37;;;;;;;19.70;11.88;;;3.90;88.00;;;;;;5054117;28;20097;-45
2021/12/10 07:11:07;;;;;;;17.50;11.07;;;3.90;87.90;;;;;;5067235;28;20020;-47
2021/12/10 07:13:36;;;;;;;19.02;11.80;;;3.90;88.00;;;;;;5057564;28;20056;-44
2021/12/10 07:16:04;;;;;;;18.77;11.50;;;3.90;87.80;;;;;;5071246;28;20028;-48
2021/12/10 07:18:30;;;;;;;19.23;12.25;;;3.90;87.80;;;;;;5071949;28;20036;-49
2021/12/10 07:20:57;;;;;;;17.98;11.65;;;3.90;87.90;;;;;;5061751;28;20033;-45
2021/12/10 07:23:24;;;;;;;21.88;11.95;;;3.90;87.90;;;;;;5071496;28;20044;-44
2021/12/10 07:25:51;;;;;;;16.85;10.77;;;3.90;88.00;;;;;;5072019;28;20095;-45
2021/12/10 07:28:20;;;;;;;16.83;11.82;;;3.90;88.00;;;;;;5070711;28;20036;-43
2021/12/10 07:30:48;;;;;;;17.83;12.80;;;3.90;88.00;;;;;;5056763;28;20120;-44
2021/12/10 07:33:16;;;;;;;17.27;11.70;;;3.90;87.90;;;;;;5071702;28;20036;-44
2021/12/10 07:35:48;;;;;;;18.38;11.95;;;3.90;87.90;;;;;;5059968;28;20100;-45
2021/12/10 07:38:16;;;;;;;28.67;12.18;;;3.90;88.00;;;;;;5058784;28;20016;-47
2021/12/10 07:40:46;;;;;;;18.83;12.38;;;3.90;88.10;;;;;;5071394;28;20089;-44
2021/12/10 07:43:13;;;;;;;;;;;3.90;88.00;;;;;;5069340;28;20028;-44
2021/12/10 07:45:41;;;;;;;18.95;11.70;;;3.90;87.90;;;;;;5070820;28;19970;-48
2021/12/10 07:48:11;;;;;;;17.13;11.13;;;3.90;87.80;;;;;;5061215;28;20021;-46
2021/12/10 07:50:42;;;;;;;17.15;11.52;;;3.90;87.90;;;;;;5072539;28;20074;-45
2021/12/10 07:53:12;;;;;;;17.10;10.65;;;3.90;88.00;;;;;;5071718;28;20115;-44
2021/12/10 07:55:40;;;;;;;20.42;10.38;;;3.80;87.80;;;;;;5071674;28;20044;-44
2021/12/10 07:58:07;;;;;;;17.92;11.90;;;3.80;88.00;;;;;;5053917;28;20033;-44
2021/12/10 08:00:39;;;;;;;18.90;12.18;;;3.80;88.10;;;;;;5074128;28;20042;-47
2021/12/10 08:03:07;;;;;;;18.48;12.27;;;3.80;88.00;;;;;;5084588;28;20023;-47
2021/12/10 08:05:34;;;;;;;15.77;11.88;;;3.80;88.20;;;;;;5071866;28;20440;-46
2021/12/10 08:08:01;;;;;;;18.80;12.23;;;3.80;88.10;;;;;;5071069;28;20028;-45
2021/12/10 08:10:29;;;;;;;16.27;11.70;;;3.80;88.10;;;;;;5055400;28;20036;-44
2021/12/10 08:12:56;;;;;;;14.60;11.50;;;3.80;88.10;;;;;;5071824;28;20045;-44
2021/12/10 08:15:23;;;;;;;16.50;10.90;;;3.80;88.10;;;;;;5071239;28;20519;-49
2021/12/10 08:17:50;;;;;;;18.85;12.15;;;3.90;88.00;;;;;;5071760;28;20028;-47
2021/12/10 08:20:21;;;;;;;18.98;10.85;;;3.90;88.10;;;;;;5071461;28;20029;-48
2021/12/10 08:22:49;;;;;;;18.95;11.57;;;3.90;88.00;;;;;;5070943;28;20104;-46
2021/12/10 08:25:18;;;;;;;19.63;12.27;;;3.90;88.00;;;;;;5070769;28;20449;-43
2021/12/10 08:27:47;;;;;;;19.08;12.50;;;3.90;88.00;;;;;;5071003;28;20396;-43
2021/12/10 08:30:15;;;;;;;15.38;11.60;;;3.90;87.90;;;;;;5070912;28;20060;-47
2021/12/10 08:32:44;;;;;;;17.10;12.23;;;4.00;88.10;;;;;;5070249;28;20124;-44
2021/12/10 08:35:15;;;;;;;18.13;12.23;;;4.00;88.00;;;;;;5065492;28;20021;-45
2021/12/10 08:37:42;;;;;;;19.98;11.95;;;4.10;87.70;;;;;;5078731;28;20024;-48
2021/12/10 08:40:13;;;;;;;16.20;11.82;;;4.10;87.60;;;;;;5090909;28;20085;-44
2021/12/10 08:42:40;;;;;;;16.15;11.35;;;4.10;87.60;;;;;;5085840;28;20362;-47
2021/12/10 08:45:07;;;;;;;19.02;11.32;;;4.10;87.50;;;;;;5070481;28;20342;-48
2021/12/10 08:47:34;;;;;;;15.70;11.57;;;4.20;87.50;;;;;;5070246;28;20032;-45
2021/12/10 08:50:02;;;;;;;17.10;11.05;;;4.20;87.40;;;;;;5070117;28;20082;-45
2021/12/10 08:52:28;;;;;;;16.85;11.35;;;4.30;87.60;;;;;;5069392;28;20036;-48
2021/12/10 08:54:55;;;;;;;17.00;11.25;;;4.30;87.30;;;;;;5070014;28;20040;-44
2021/12/10 08:57:24;;;;;;;14.38;11.18;;;4.30;87.30;;;;;;5070088;28;20040;-44
2021/12/10 08:59:51;;;;;;;16.58;11.57;;;4.40;87.20;;;;;;5052060;28;20110;-44
2021/12/10 09:02:17;;;;;;;18.13;12.02;;;4.50;87.20;;;;;;5068650;28;20033;-45
2021/12/10 09:04:49;;;;;;;17.13;13.32;;;4.70;86.90;;;;;;5052192;28;20618;-47
2021/12/10 09:07:18;;;;;;;16.70;10.13;;;4.80;86.60;;;;;;5069561;28;20036;-47
2021/12/10 09:09:48;;;;;;;12.20;9.90;;;4.90;86.30;;;;;;5044365;28;20053;-46
2021/12/10 09:12:22;;;;;;;15.25;10.23;;;5.00;86.00;;;;;;5068988;28;20025;-44
2021/12/10 09:14:52;;;;;;;17.10;10.73;;;4.90;85.70;;;;;;5069292;28;20422;-45
2021/12/10 09:17:25;;;;;;;21.45;11.30;;;4.80;85.50;;;;;;5069051;28;20025;-46
2021/12/10 09:19:55;;;;;;;16.33;11.30;;;4.80;85.60;;;;;;5068778;28;20028;-49
2021/12/10 09:22:23;;;;;;;16.00;9.73;;;4.70;85.30;;;;;;5068689;28;20020;-48
2021/12/10 09:24:54;;;;;;;14.43;10.05;;;4.60;85.60;;;;;;5066852;28;20087;-47
2021/12/10 09:27:22;;;;;;;12.32;9.30;;;4.50;86.00;;;;;;5057248;28;20069;-47
2021/12/10 09:29:50;;;;;;;17.73;10.77;;;4.50;86.20;;;;;;5059892;28;20045;-46
2021/12/10 09:32:20;;;;;;;17.52;9.70;;;4.50;86.40;;;;;;5055330;28;20115;-45
2021/12/10 09:34:48;;;;;;;15.95;10.77;;;4.50;86.00;;;;;;5034652;28;20025;-45
2021/12/10 09:37:17;;;;;;;16.73;10.32;;;4.40;85.90;;;;;;5054447;28;20028;-48
2021/12/10 09:39:52;;;;;;;16.80;10.70;;;4.30;86.10;;;;;;5057648;28;20434;-44
2021/12/10 09:42:22;;;;;;;17.45;10.93;;;4.10;86.20;;;;;;5062790;28;20040;-46
2021/12/10 09:44:54;;;;;;;16.55;11.18;;;4.20;86.50;;;;;;5043686;28;20028;-44
2021/12/10 09:47:21;;;;;;;17.85;10.60;;;4.30;86.70;;;;;;5060481;28;20025;-45
2021/12/10 09:49:52;;;;;;;17.08;11.30;;;4.40;86.60;;;;;;5063552;28;20025;-44
2021/12/10 09:52:21;;;;;;;15.32;10.52;;;4.50;86.30;;;;;;5060583;28;20353;-45
2021/12/10 09:54:48;;;;;;;12.82;9.70;;;4.60;86.00;;;;;;5060130;28;20032;-45
2021/12/10 09:57:34;;;;;;;13.05;9.98;;;4.70;85.60;;;;;;5069573;28;20033;-43
2021/12/10 10:00:10;;;;;;;12.85;9.80;;;4.80;85.40;;;;;;5045525;28;20090;-44
2021/12/10 10:02:36;;;;;;;11.93;8.52;;;4.90;85.10;;;;;;5055128;28;20017;-48
2021/12/10 10:05:05;;;;;;;15.07;8.75;;;5.00;85.00;;;;;;5059273;28;20056;-44
2021/12/10 10:07:33;;;;;;;14.98;9.80;;;5.00;84.90;;;;;;5066775;28;20042;-46
2021/12/10 10:10:13;;;;;;;15.85;10.07;;;5.10;84.70;;;;;;5058493;28;20032;-45
2021/12/10 10:12:45;;;;;;;16.95;10.50;;;5.10;84.70;;;;;;5051313;28;20436;-44
2021/12/10 10:15:28;;;;;;;18.15;11.13;;;5.10;84.80;;;;;;5062427;28;20437;-45
2021/12/10 10:17:56;;;;;;;14.07;10.18;;;4.90;84.50;;;;;;5064774;28;20040;-46
2021/12/10 10:20:25;;;;;;;15.77;10.55;;;4.90;84.70;;;;;;5066194;28;20028;-48
2021/12/10 10:22:52;;;;;;;16.33;11.18;;;4.90;84.50;;;;;;5072232;28;20022;-46
2021/12/10 10:25:22;;;;;;;17.63;10.25;;;4.80;84.80;;;;;;5072270;28;20128;-44
2021/12/10 10:27:49;;;;;;;;;;;4.80;85.10;;;;;;5069442;28;20024;-43
2021/12/10 10:30:28;;;;;;;15.07;10.75;;;4.70;85.10;;;;;;5067781;28;19912;-46
2021/12/10 10:32:58;;;;;;;13.70;10.27;;;4.70;85.20;;;;;;5061121;28;20465;-45
2021/12/10 10:35:30;;;;;;;15.73;10.77;;;4.70;85.20;;;;;;5062044;28;20492;-47
2021/12/10 10:37:59;;;;;;;15.05;10.75;;;4.60;85.50;;;;;;5067267;28;20020;-46
2021/12/10 10:40:33;;;;;;;18.47;11.83;;;4.60;85.20;;;;;;5067394;28;20033;-47
2021/12/10 10:43:01;;;;;;;14.75;10.48;;;4.60;85.30;;;;;;5068697;28;20038;-46
2021/12/10 10:45:32;;;;;;;15.77;10.63;;;4.60;85.40;;;;;;5051945;28;20020;-46
2021/12/10 10:48:00;;;;;;;16.20;11.88;;;4.50;85.40;;;;;;5072637;28;20044;-46
2021/12/10 10:50:31;;;;;;;17.98;10.63;;;4.50;85.40;;;;;;5055271;28;20032;-49
2021/12/10 10:53:05;;;;;;;14.13;10.50;;;4.60;85.50;;;;;;5058210;28;20055;-46
2021/12/10 10:55:40;;;;;;;15.88;11.15;;;4.70;85.50;;;;;;5057203;28;20041;-47
2021/12/10 10:58:16;;;;;;;17.08;11.65;;;4.70;85.30;;;;;;5062332;28;20347;-47
2021/12/10 11:01:03;;;;;;;15.20;10.68;;;4.70;85.10;;;;;;5070913;28;20056;-45
2021/12/10 11:03:46;;;;;;;16.60;10.45;;;4.80;85.00;;;;;;5067268;28;20334;-46
2021/12/10 11:06:15;;;;;;;13.77;10.13;;;4.90;84.90;;;;;;5072150;28;20048;-44
2021/12/10 11:08:49;;;;;;;21.48;10.88;;;4.90;84.70;;;;;;5055754;28;20100;-47
2021/12/10 11:11:35;;;;;;;14.93;11.05;;;4.90;84.60;;;;;;5054709;28;20075;-44
2021/12/10 11:14:12;;;;;;;20.50;10.88;;;5.00;84.20;;;;;;5069151;28;20330;-45
2021/12/10 11:16:42;;;;;;;14.48;11.00;;;5.00;84.00;;;;;;5070520;28;20048;-45
2021/12/10 11:19:28;;;;;;;16.95;10.90;;;5.00;83.80;;;;;;5054840;28;20020;-47
2021/12/10 11:21:58;;;;;;;16.95;9.65;;;4.90;83.60;;;;;;5071730;28;20039;-46
2021/12/10 11:24:59;;;;;;;15.90;11.05;;;4.90;83.90;;;;;;5071769;28;20028;-46
2021/12/10 11:27:37;;;;;;;14.18;10.18;;;4.90;83.80;;;;;;5071791;28;20043;-45
2021/12/10 11:30:10;;;;;;;15.88;10.88;;;4.80;84.10;;;;;;5047927;28;20124;-47
2021/12/10 11:32:47;;;;;;;16.58;9.93;;;4.90;84.10;;;;;;5031544;28;20040;-47
2021/12/10 11:35:30;;;;;;;15.60;10.60;;;4.90;84.20;;;;;;5032155;28;20126;-46
2021/12/10 11:38:05;;;;;;;18.67;11.30;;;4.90;84.10;;;;;;5031238;28;20129;-46
2021/12/10 11:40:58;;;;;;;17.00;11.65;;;4.90;83.90;;;;;;5031131;28;20109;-47
2021/12/10 11:43:52;;;;;;;18.33;12.15;;;4.90;83.70;;;;;;5031577;28;20036;-46
2021/12/10 11:46:31;;;;;;;16.02;11.75;;;4.90;83.90;;;;;;5031910;28;20070;-45
2021/12/10 11:49:27;;;;;;;19.27;12.20;;;5.00;84.00;;;;;;5031544;28;20091;-45
2021/12/10 11:52:20;;;;;;;15.65;10.52;;;5.00;84.20;;;;;;5031569;28;20040;-44
2021/12/10 11:55:05;;;;;;;16.38;9.98;;;5.00;83.70;;;;;;5019684;28;20034;-45
2021/12/10 11:57:38;;;;;;;18.98;12.27;;;5.00;83.20;;;;;;5011306;28;20107;-44
2021/12/10 12:00:20;;;;;;;17.98;11.10;;;4.90;83.40;;;;;;5017338;28;20036;-45
2021/12/10 12:03:05;;;;;;;16.88;10.98;;;4.90;83.50;;;;;;5030500;28;20068;-50
2021/12/10 12:05:41;;;;;;;16.20;11.15;;;4.90;83.60;;;;;;5031346;28;20025;-46
2021/12/10 12:08:11;;;;;;;17.25;11.88;;;4.80;83.80;;;;;;5031340;28;20025;-46
2021/12/10 12:11:01;;;;;;;17.92;11.07;;;4.80;83.90;;;;;;5031336;28;20339;-44
2021/12/10 12:13:38;;;;;;;15.63;10.52;;;4.80;84.00;;;;;;5029917;28;20038;-43
2021/12/10 12:16:26;;;;;;;14.07;10.43;;;4.90;84.10;;;;;;5030141;28;20033;-46
2021/12/10 12:18:58;;;;;;;12.93;9.63;;;4.90;83.90;;;;;;5031179;28;20490;-45
2021/12/10 12:27:15;;;;;;;15.15;11.70;;;5.00;84.00;;;;;;5030825;28;20111;-49
2021/12/10 12:29:55;;;;;;;17.10;11.32;;;5.00;84.20;;;;;;5030266;28;20037;-44
2021/12/10 12:32:43;;;;;;;14.43;10.00;;;5.00;83.90;;;;;;5030052;28;20116;-46
2021/12/10 12:35:28;;;;;;;14.52;10.18;;;5.00;83.60;;;;;;5030833;28;20047;-46
2021/12/10 12:38:29;;;;;;;13.98;9.90;;;5.00;83.80;;;;;;5028682;28;20021;-43
2021/12/10 12:41:11;;;;;;;18.38;11.10;;;5.00;83.80;;;;;;5009138;28;20088;-47
2021/12/10 12:43:41;;;;;;;15.73;10.00;;;4.90;83.70;;;;;;5026213;28;20029;-46
2021/12/10 12:46:11;;;;;;;15.52;9.98;;;5.00;83.40;;;;;;5028191;28;20592;-46
2021/12/10 12:48:54;;;;;;;15.85;10.93;;;5.00;83.70;;;;;;5029457;28;20037;-48
2021/12/10 12:51:22;;;;;;;14.30;10.77;;;5.10;83.20;;;;;;5028497;28;20037;-43
2021/12/10 12:53:50;;;;;;;14.55;8.90;;;5.10;83.30;;;;;;5029503;28;20049;-48
2021/12/10 12:56:19;;;;;;;14.30;8.48;;;5.00;83.30;;;;;;5044893;28;20057;-50
2021/12/10 12:59:04;;;;;;;12.88;9.63;;;5.00;83.10;;;;;;5029771;28;20125;-45
2021/12/10 13:01:47;;;;;;;13.57;8.38;;;4.90;82.90;;;;;;5028141;28;20439;-44
2021/12/10 13:04:25;;;;;;;15.48;10.45;;;4.90;83.00;;;;;;5029231;28;20087;-48
2021/12/10 13:07:11;;;;;;;14.57;10.10;;;5.00;83.20;;;;;;5029170;28;20033;-46
2021/12/10 13:09:52;;;;;;;15.23;10.20;;;5.00;83.40;;;;;;5029686;28;20106;-44
2021/12/10 13:12:45;;;;;;;15.85;10.80;;;5.10;83.40;;;;;;5029526;28;20512;-48
2021/12/10 13:15:33;;;;;;;13.95;9.05;;;5.20;83.40;;;;;;5029743;28;20033;-43
2021/12/10 13:18:04;;;;;;;17.00;10.00;;;5.10;83.20;;;;;;5028058;28;20037;-45
2021/12/10 13:20:36;;;;;;;15.07;9.85;;;5.10;82.90;;;;;;5021692;28;20052;-45